createdAt,value
2017-08-06T00:00:37.054Z,101465.10
2017-08-06T00:03:05.443Z,101468.22
2017-08-06T00:05:33.815Z,101467.28
2017-08-06T00:08:02.470Z,101471.55
2017-08-06T00:10:30.854Z,101474.81
2017-08-06T00:12:59.208Z,101471.87
2017-08-06T00:15:27.989Z,101467.02
2017-08-06T00:17:56.341Z,101470.36
2017-08-06T00:20:24.710Z,101474.03
2017-08-06T00:22:53.351Z,101477.31
2017-08-06T00:25:21.803Z,101483.67
2017-08-06T00:27:50.169Z,101484.16
2017-08-06T00:30:18.781Z,101484.62
2017-08-06T00:32:47.154Z,101488.26
2017-08-06T00:35:15.538Z,101485.66
2017-08-06T00:37:44.262Z,101490.41
2017-08-06T00:40:12.594Z,101489.55
2017-08-06T00:42:40.946Z,101492.86
2017-08-06T00:45:09.739Z,101494.11
2017-08-06T00:47:38.084Z,101491.25
2017-08-06T00:50:06.427Z,101493.60
2017-08-06T00:52:35.159Z,101496.11
2017-08-06T00:55:03.502Z,101497.75
2017-08-06T00:57:32.620Z,101501.23
2017-08-06T01:00:01.587Z,101500.17
2017-08-06T01:02:29.942Z,101502.88
2017-08-06T01:04:58.303Z,101503.95
2017-08-06T01:07:27.034Z,101499.55
2017-08-06T01:09:55.383Z,101501.00
2017-08-06T01:12:23.736Z,101507.95
2017-08-06T01:14:52.810Z,101501.64
2017-08-06T01:17:21.149Z,101514.69
2017-08-06T01:19:49.494Z,101511.26
2017-08-06T01:22:18.175Z,101510.92
2017-08-06T01:24:46.529Z,101517.70
2017-08-06T01:27:14.866Z,101511.89
2017-08-06T01:29:43.730Z,101519.75
2017-08-06T01:32:12.098Z,101503.12
2017-08-06T01:34:40.456Z,101514.27
2017-08-06T01:37:09.080Z,101512.61
2017-08-06T01:39:37.430Z,101502.81
2017-08-06T01:42:05.809Z,101514.96
2017-08-06T01:44:34.509Z,101512.23
2017-08-06T01:47:02.871Z,101507.23
2017-08-06T01:49:31.214Z,101508.93
2017-08-06T01:52:00.118Z,101512.23
2017-08-06T01:54:28.482Z,101512.28
2017-08-06T01:56:57.613Z,101518.53
2017-08-06T01:59:26.294Z,101518.44
2017-08-06T02:01:54.643Z,101525.73
2017-08-06T02:04:22.980Z,101528.94
2017-08-06T02:06:51.735Z,101532.59
2017-08-06T02:09:20.102Z,101533.38
2017-08-06T02:11:48.476Z,101528.06
2017-08-06T02:14:17.932Z,101540.84
2017-08-06T02:16:46.297Z,101539.55
2017-08-06T02:19:14.660Z,101542.76
2017-08-06T02:21:43.352Z,101541.02
2017-08-06T02:24:11.734Z,101549.39
2017-08-06T02:26:40.093Z,101556.16
2017-08-06T02:29:09.207Z,101559.19
2017-08-06T02:31:37.553Z,101565.31
2017-08-06T02:34:05.913Z,101561.01
2017-08-06T02:36:34.562Z,101556.42
2017-08-06T02:39:02.921Z,101555.72
2017-08-06T02:41:31.299Z,101573.23
2017-08-06T02:44:00.093Z,101574.83
2017-08-06T02:46:28.474Z,101567.81
2017-08-06T02:48:56.806Z,101571.65
2017-08-06T02:51:28.007Z,101577.84
2017-08-06T02:53:56.369Z,101581.27
2017-08-06T02:56:24.711Z,101580.28
2017-08-06T02:58:53.447Z,101580.55
2017-08-06T03:01:21.772Z,101589.56
2017-08-06T03:03:50.115Z,101586.34
2017-08-06T03:06:19.070Z,101590.20
2017-08-06T03:08:47.423Z,101590.67
2017-08-06T03:11:15.773Z,101593.66
2017-08-06T03:13:44.523Z,101590.42
2017-08-06T03:16:12.859Z,101592.02
2017-08-06T03:18:41.208Z,101595.41
2017-08-06T03:21:09.975Z,101603.52
2017-08-06T03:23:38.324Z,101607.93
2017-08-06T03:26:06.658Z,101610.34
2017-08-06T03:28:35.335Z,101609.06
2017-08-06T03:31:03.671Z,101613.28
2017-08-06T03:33:32.009Z,101621.84
2017-08-06T03:36:00.770Z,101615.94
2017-08-06T03:38:29.099Z,101621.36
2017-08-06T03:40:57.434Z,101622.36
2017-08-06T03:43:26.293Z,101632.20
2017-08-06T03:45:54.658Z,101635.62
2017-08-06T03:48:23.009Z,101643.12
2017-08-06T03:50:51.684Z,101643.98
2017-08-06T03:53:20.048Z,101649.08
2017-08-06T03:55:48.431Z,101650.34
2017-08-06T03:58:17.279Z,101648.72
2017-08-06T04:00:45.615Z,101651.59
2017-08-06T04:03:13.971Z,101653.08
2017-08-06T04:05:42.846Z,101660.17
2017-08-06T04:08:11.204Z,101665.38
2017-08-06T04:10:39.574Z,101659.16
2017-08-06T04:13:08.188Z,101655.72
2017-08-06T04:15:36.532Z,101664.59
2017-08-06T04:18:04.913Z,101668.31
2017-08-06T04:20:34.521Z,101668.98
2017-08-06T04:23:02.865Z,101667.98
2017-08-06T04:25:31.223Z,101669.23
2017-08-06T04:27:59.873Z,101679.09
2017-08-06T04:30:28.224Z,101675.13
2017-08-06T04:32:56.590Z,101682.17
2017-08-06T04:35:25.236Z,101680.94
2017-08-06T04:37:53.674Z,101683.91
2017-08-06T04:40:22.051Z,101678.80
2017-08-06T04:42:51.118Z,101680.87
2017-08-06T04:45:19.468Z,101681.67
2017-08-06T04:47:48.566Z,101684.27
2017-08-06T04:50:17.186Z,101683.22
2017-08-06T04:52:45.526Z,101692.34
2017-08-06T04:55:13.891Z,101692.28
2017-08-06T04:57:42.644Z,101701.75
2017-08-06T05:00:10.982Z,101701.77
2017-08-06T05:02:39.322Z,101702.42
2017-08-06T05:05:08.015Z,101697.42
2017-08-06T05:07:36.375Z,101702.59
2017-08-06T05:10:04.701Z,101706.16
2017-08-06T05:12:33.361Z,101714.16
2017-08-06T05:15:01.731Z,101708.17
2017-08-06T05:17:30.085Z,101713.78
2017-08-06T05:19:58.740Z,101718.47
2017-08-06T05:22:27.118Z,101722.88
2017-08-06T05:24:55.453Z,101713.04
2017-08-06T05:27:24.594Z,101720.26
2017-08-06T05:29:52.945Z,101722.37
2017-08-06T05:32:22.075Z,101725.94
2017-08-06T05:34:50.736Z,101732.83
2017-08-06T05:37:19.826Z,101727.41
2017-08-06T05:39:48.949Z,101730.69
2017-08-06T05:42:17.669Z,101734.80
2017-08-06T05:44:46.031Z,101742.10
2017-08-06T05:47:14.379Z,101745.08
2017-08-06T05:49:43.233Z,101743.08
2017-08-06T05:52:11.577Z,101750.53
2017-08-06T05:54:39.913Z,101752.72
2017-08-06T05:57:08.832Z,101748.36
2017-08-06T05:59:37.180Z,101750.55
2017-08-06T06:02:05.535Z,101754.55
2017-08-06T06:04:34.236Z,101768.00
2017-08-06T06:07:02.582Z,101766.41
2017-08-06T06:09:30.927Z,101773.81
2017-08-06T06:11:59.934Z,101771.53
2017-08-06T06:14:28.287Z,101782.57
2017-08-06T06:16:56.637Z,101779.14
2017-08-06T06:19:25.279Z,101786.02
2017-08-06T06:21:53.629Z,101785.30
2017-08-06T06:24:21.983Z,101790.91
2017-08-06T06:26:50.827Z,101792.05
2017-08-06T06:29:19.163Z,101795.34
2017-08-06T06:31:47.514Z,101796.95
2017-08-06T06:34:16.194Z,101807.79
2017-08-06T06:36:44.540Z,101808.88
2017-08-06T06:39:12.893Z,101797.81
2017-08-06T06:41:41.743Z,101809.59
2017-08-06T06:44:10.122Z,101812.61
2017-08-06T06:46:38.465Z,101814.17
2017-08-06T06:49:07.183Z,101813.00
2017-08-06T06:51:35.551Z,101819.20
2017-08-06T06:54:03.901Z,101824.11
2017-08-06T06:56:32.762Z,101822.93
2017-08-06T06:59:01.081Z,101826.22
2017-08-06T07:01:29.464Z,101828.94
2017-08-06T07:03:58.216Z,101828.84
2017-08-06T07:06:26.558Z,101839.84
2017-08-06T07:08:54.966Z,101837.59
2017-08-06T07:11:23.647Z,101841.79
2017-08-06T07:13:52.018Z,101840.78
2017-08-06T07:16:20.334Z,101843.91
2017-08-06T07:18:50.237Z,101846.35
2017-08-06T07:21:18.588Z,101848.11
2017-08-06T07:23:46.963Z,101850.55
2017-08-06T07:26:15.736Z,101852.02
2017-08-06T07:28:44.093Z,101855.92
2017-08-06T07:31:12.437Z,101864.91
2017-08-06T07:33:41.095Z,101860.95
2017-08-06T07:36:09.466Z,101867.81
2017-08-06T07:38:37.828Z,101866.52
2017-08-06T07:41:06.678Z,101874.61
2017-08-06T07:43:35.018Z,101869.58
2017-08-06T07:46:03.365Z,101873.01
2017-08-06T07:48:31.964Z,101879.52
2017-08-06T07:51:00.327Z,101877.27
2017-08-06T07:53:28.679Z,101870.40
2017-08-06T07:55:57.354Z,101877.83
2017-08-06T07:58:25.737Z,101882.45
2017-08-06T08:00:54.102Z,101877.06
2017-08-06T08:03:23.249Z,101882.51
2017-08-06T08:05:51.642Z,101880.72
2017-08-06T08:08:19.999Z,101882.62
2017-08-06T08:10:48.623Z,101883.48
2017-08-06T08:13:16.995Z,101888.66
2017-08-06T08:15:45.346Z,101882.84
2017-08-06T08:18:14.159Z,101888.65
2017-08-06T08:20:42.498Z,101892.67
2017-08-06T08:23:10.842Z,101890.47
2017-08-06T08:25:39.796Z,101892.50
2017-08-06T08:28:08.117Z,101893.46
2017-08-06T08:30:36.493Z,101893.78
2017-08-06T08:33:05.166Z,101899.52
2017-08-06T08:35:33.514Z,101900.88
2017-08-06T08:38:01.838Z,101897.59
2017-08-06T08:40:30.490Z,101893.86
2017-08-06T08:42:58.855Z,101907.73
2017-08-06T08:45:27.183Z,101902.81
2017-08-06T08:47:55.952Z,101907.27
2017-08-06T08:50:24.308Z,101906.50
2017-08-06T08:52:52.655Z,101908.67
2017-08-06T08:55:21.556Z,101913.20
2017-08-06T08:57:49.931Z,101908.36
2017-08-06T09:00:19.035Z,101910.64
2017-08-06T09:02:47.662Z,101920.08
2017-08-06T09:05:15.983Z,101921.77
2017-08-06T09:07:45.328Z,101918.37
2017-08-06T09:10:14.033Z,101915.30
2017-08-06T09:12:42.428Z,101927.86
2017-08-06T09:15:11.579Z,101925.68
2017-08-06T09:17:40.341Z,101931.66
2017-08-06T09:20:08.724Z,101922.98
2017-08-06T09:22:37.865Z,101933.34
2017-08-06T09:25:06.554Z,101940.72
2017-08-06T09:27:34.913Z,101934.70
2017-08-06T09:30:03.254Z,101920.30
2017-08-06T09:32:32.071Z,101933.35
2017-08-06T09:35:00.427Z,101931.48
2017-08-06T09:37:29.564Z,101929.28
2017-08-06T09:39:58.332Z,101931.98
2017-08-06T09:42:26.711Z,101939.09
2017-08-06T09:44:55.052Z,101939.00
2017-08-06T09:47:23.812Z,101947.25
2017-08-06T09:49:52.178Z,101938.38
2017-08-06T09:52:20.565Z,101940.08
2017-08-06T09:54:49.298Z,101939.09
2017-08-06T09:57:18.389Z,101942.34
2017-08-06T09:59:47.526Z,101947.77
2017-08-06T10:02:16.298Z,101946.05
2017-08-06T10:04:44.659Z,101939.30
2017-08-06T10:07:13.795Z,101932.23
2017-08-06T10:09:42.757Z,101934.44
2017-08-06T10:12:11.136Z,101943.62
2017-08-06T10:14:40.280Z,101939.33
2017-08-06T10:17:09.148Z,101941.32
2017-08-06T10:19:37.506Z,101939.63
2017-08-06T10:22:05.849Z,101941.51
2017-08-06T10:24:34.489Z,101941.51
2017-08-06T10:27:02.834Z,101942.95
2017-08-06T10:29:31.956Z,101943.86
2017-08-06T10:32:00.772Z,101938.13
2017-08-06T10:34:29.131Z,101939.69
2017-08-06T10:36:57.492Z,101936.13
2017-08-06T10:39:26.461Z,101940.16
2017-08-06T10:41:55.571Z,101937.42
2017-08-06T10:44:24.694Z,101938.17
2017-08-06T10:46:53.359Z,101935.47
2017-08-06T10:49:21.724Z,101934.33
2017-08-06T10:51:50.098Z,101930.59
2017-08-06T10:54:18.947Z,101935.84
2017-08-06T10:56:47.304Z,101936.91
2017-08-06T10:59:15.665Z,101928.86
2017-08-06T11:01:44.534Z,101941.52
2017-08-06T11:04:12.949Z,101939.44
2017-08-06T11:06:41.284Z,101928.67
2017-08-06T11:09:10.038Z,101929.02
2017-08-06T11:11:38.387Z,101933.38
2017-08-06T11:14:07.494Z,101937.97
2017-08-06T11:16:37.115Z,101937.97
2017-08-06T11:19:05.478Z,101929.97
2017-08-06T11:21:33.817Z,101934.68
2017-08-06T11:24:02.748Z,101935.27
2017-08-06T11:26:31.127Z,101939.91
2017-08-06T11:28:59.482Z,101941.05
2017-08-06T11:31:28.189Z,101937.03
2017-08-06T11:33:56.568Z,101931.71
2017-08-06T11:36:24.959Z,101934.20
2017-08-06T11:38:53.660Z,101928.73
2017-08-06T11:41:22.045Z,101935.31
2017-08-06T11:43:50.400Z,101927.84
2017-08-06T11:46:19.315Z,101923.20
2017-08-06T11:48:47.664Z,101926.15
2017-08-06T11:51:16.072Z,101924.88
2017-08-06T11:53:44.740Z,101923.45
2017-08-06T11:56:13.157Z,101928.78
2017-08-06T11:58:41.494Z,101914.84
2017-08-06T12:01:10.379Z,101918.09
2017-08-06T12:03:38.721Z,101911.11
2017-08-06T12:06:07.056Z,101923.33
2017-08-06T12:08:35.947Z,101923.56
2017-08-06T12:11:04.283Z,101918.50
2017-08-06T12:13:32.643Z,101916.62
2017-08-06T12:16:01.479Z,101921.98
2017-08-06T12:18:29.812Z,101921.56
2017-08-06T12:20:58.181Z,101920.52
2017-08-06T12:23:26.876Z,101922.23
2017-08-06T12:25:55.235Z,101918.80
2017-08-06T12:28:23.569Z,101918.48
2017-08-06T12:30:52.386Z,101925.21
2017-08-06T12:33:20.754Z,101924.20
2017-08-06T12:35:49.102Z,101922.75
2017-08-06T12:38:17.822Z,101919.08
2017-08-06T12:40:46.177Z,101923.05
2017-08-06T12:43:14.539Z,101935.95
2017-08-06T12:45:43.465Z,101927.81
2017-08-06T12:48:11.830Z,101935.50
2017-08-06T12:50:40.944Z,101933.81
2017-08-06T12:53:09.940Z,101937.63
2017-08-06T12:55:38.288Z,101933.52
2017-08-06T12:58:06.640Z,101937.63
2017-08-06T13:00:35.295Z,101936.22
2017-08-06T13:03:03.641Z,101933.29
2017-08-06T13:05:31.986Z,101926.64
2017-08-06T13:08:00.825Z,101937.57
2017-08-06T13:10:29.167Z,101925.63
2017-08-06T13:12:57.507Z,101938.07
2017-08-06T13:15:26.366Z,101932.58
2017-08-06T13:17:54.722Z,101935.39
2017-08-06T13:20:23.078Z,101938.70
2017-08-06T13:22:51.800Z,101929.70
2017-08-06T13:25:20.153Z,101935.66
2017-08-06T13:27:48.523Z,101936.78
2017-08-06T13:30:17.219Z,101936.28
2017-08-06T13:32:45.607Z,101928.05
2017-08-06T13:35:13.968Z,101922.64
2017-08-06T13:37:42.854Z,101925.52
2017-08-06T13:40:11.190Z,101920.39
2017-08-06T13:42:39.529Z,101920.46
2017-08-06T13:45:08.286Z,101931.84
2017-08-06T13:47:36.664Z,101930.57
2017-08-06T13:50:05.052Z,101925.46
2017-08-06T13:52:33.906Z,101931.76
2017-08-06T13:55:02.246Z,101924.52
2017-08-06T13:57:30.590Z,101924.39
2017-08-06T13:59:59.347Z,101924.63
2017-08-06T14:02:27.731Z,101935.36
2017-08-06T14:04:56.075Z,101929.97
2017-08-06T14:07:25.035Z,101925.66
2017-08-06T14:09:53.378Z,101937.17
2017-08-06T14:12:21.715Z,101933.81
2017-08-06T14:14:50.650Z,101951.09
2017-08-06T14:17:19.014Z,101950.05
2017-08-06T14:19:48.119Z,101945.49
2017-08-06T14:22:16.956Z,101943.34
2017-08-06T14:24:45.312Z,101944.06
2017-08-06T14:27:13.682Z,101942.30
2017-08-06T14:29:42.561Z,101945.83
2017-08-06T14:32:10.906Z,101944.91
2017-08-06T14:34:40.041Z,101937.10
2017-08-06T14:37:08.752Z,101944.91
2017-08-06T14:39:37.115Z,101933.69
2017-08-06T14:42:05.458Z,101928.84
2017-08-06T14:44:35.301Z,101936.23
2017-08-06T14:47:03.660Z,101937.44
2017-08-06T14:49:32.045Z,101938.09
2017-08-06T14:52:00.685Z,101945.61
2017-08-06T14:54:29.041Z,101939.06
2017-08-06T14:56:57.405Z,101939.03
2017-08-06T14:59:26.200Z,101946.88
2017-08-06T15:01:54.552Z,101942.86
2017-08-06T15:04:22.916Z,101946.98
2017-08-06T15:06:51.678Z,101947.87
2017-08-06T15:09:20.041Z,101951.59
2017-08-06T15:11:48.414Z,101946.38
2017-08-06T15:14:17.288Z,101954.80
2017-08-06T15:16:45.635Z,101955.11
2017-08-06T15:19:13.993Z,101957.98
2017-08-06T15:21:42.606Z,101971.92
2017-08-06T15:24:10.950Z,101966.78
2017-08-06T15:26:39.312Z,101975.06
2017-08-06T15:29:08.384Z,101982.92
2017-08-06T15:31:36.751Z,101978.25
2017-08-06T15:34:05.863Z,101976.19
2017-08-06T15:36:34.609Z,101969.80
2017-08-06T15:39:02.991Z,101978.32
2017-08-06T15:41:32.100Z,101969.37
2017-08-06T15:44:01.528Z,101968.47
2017-08-06T15:46:29.907Z,101977.48
2017-08-06T15:48:58.246Z,101973.79
2017-08-06T15:51:27.033Z,101976.45
2017-08-06T15:53:56.180Z,101977.83
2017-08-06T15:56:24.543Z,101982.69
2017-08-06T15:58:53.272Z,101976.75
2017-08-06T16:01:21.785Z,101981.65
2017-08-06T16:03:50.144Z,101976.08
2017-08-06T16:06:18.846Z,101982.91
2017-08-06T16:08:47.186Z,101971.61
2017-08-06T16:11:15.572Z,101974.52
2017-08-06T16:13:44.675Z,101978.91
2017-08-06T16:16:13.026Z,101977.48
2017-08-06T16:18:41.388Z,101981.64
2017-08-06T16:21:10.006Z,101976.03
2017-08-06T16:23:38.374Z,101976.79
2017-08-06T16:26:06.736Z,101977.73
2017-08-06T16:28:35.368Z,101972.34
2017-08-06T16:31:03.736Z,101970.91
2017-08-06T16:33:32.092Z,101971.61
2017-08-06T16:36:01.959Z,101977.38
2017-08-06T16:38:31.086Z,101979.34
2017-08-06T16:40:59.538Z,101976.98
2017-08-06T16:43:28.357Z,101976.11
2017-08-06T16:45:56.706Z,101967.58
2017-08-06T16:48:25.074Z,101970.55
2017-08-06T16:50:53.723Z,101973.09
2017-08-06T16:53:22.139Z,101969.36
2017-08-06T16:55:51.291Z,101974.48
2017-08-06T16:58:20.283Z,101970.72
2017-08-06T17:00:48.635Z,101980.77
2017-08-06T17:03:16.984Z,101979.08
2017-08-06T17:05:45.655Z,101979.16
2017-08-06T17:08:14.009Z,101977.84
2017-08-06T17:10:42.360Z,101971.84
2017-08-06T17:13:11.764Z,101972.59
2017-08-06T17:15:40.133Z,101966.31
2017-08-06T17:18:09.256Z,101963.29
2017-08-06T17:20:38.245Z,101962.27
2017-08-06T17:23:06.601Z,101964.80
2017-08-06T17:25:35.777Z,101967.62
2017-08-06T17:28:04.511Z,101962.99
2017-08-06T17:30:32.897Z,101963.08
2017-08-06T17:33:01.343Z,101968.22
2017-08-06T17:35:30.782Z,101976.37
2017-08-06T17:37:59.191Z,101970.10
2017-08-06T17:40:27.568Z,101974.80
2017-08-06T17:42:56.395Z,101979.26
2017-08-06T17:45:24.844Z,101986.99
2017-08-06T17:47:53.256Z,101983.68
2017-08-06T17:50:22.087Z,101985.72
2017-08-06T17:52:50.517Z,101981.27
2017-08-06T17:55:19.890Z,101987.69
2017-08-06T17:57:48.832Z,101983.11
2017-08-06T18:00:17.301Z,101986.14
2017-08-06T18:02:45.876Z,101983.48
2017-08-06T18:05:14.715Z,101983.73
2017-08-06T18:07:43.139Z,101982.47
2017-08-06T18:10:11.587Z,101990.58
2017-08-06T18:12:40.366Z,101983.83
2017-08-06T18:15:08.780Z,101984.59
2017-08-06T18:17:37.144Z,101985.39
2017-08-06T18:20:05.814Z,101984.94
2017-08-06T18:22:34.187Z,101996.09
2017-08-06T18:25:02.588Z,101997.31
2017-08-06T18:27:31.587Z,101997.61
2017-08-06T18:29:59.962Z,102000.89
2017-08-06T18:32:28.315Z,102000.31
2017-08-06T18:34:56.965Z,102004.16
2017-08-06T18:37:25.323Z,102010.02
2017-08-06T18:39:53.719Z,102008.86
2017-08-06T18:42:22.457Z,102014.55
2017-08-06T18:44:50.854Z,102015.97
2017-08-06T18:47:19.219Z,102015.88
2017-08-06T18:49:48.279Z,102016.77
2017-08-06T18:52:17.371Z,102015.84
2017-08-06T18:54:45.756Z,102024.13
2017-08-06T18:57:14.576Z,102026.88
2017-08-06T18:59:42.936Z,102033.00
2017-08-06T19:02:12.060Z,102028.84
2017-08-06T19:04:40.838Z,102026.41
2017-08-06T19:07:09.195Z,102027.06
2017-08-06T19:09:38.315Z,102024.39
2017-08-06T19:12:07.281Z,102037.37
2017-08-06T19:14:35.659Z,102038.34
2017-08-06T19:17:04.043Z,102037.59
2017-08-06T19:19:32.960Z,102045.57
2017-08-06T19:22:01.301Z,102047.05
2017-08-06T19:24:30.464Z,102049.81
2017-08-06T19:26:59.431Z,102047.48
2017-08-06T19:29:27.793Z,102053.11
2017-08-06T19:31:56.185Z,102053.01
2017-08-06T19:34:24.912Z,102061.59
2017-08-06T19:36:53.266Z,102054.38
2017-08-06T19:39:21.657Z,102051.06
2017-08-06T19:41:50.356Z,102053.25
2017-08-06T19:44:18.806Z,102059.63
2017-08-06T19:46:47.154Z,102065.25
2017-08-06T19:49:15.865Z,102062.12
2017-08-06T19:51:44.270Z,102066.99
2017-08-06T19:54:12.670Z,102061.11
2017-08-06T19:56:41.429Z,102064.49
2017-08-06T19:59:09.831Z,102066.08
2017-08-06T20:01:38.238Z,102071.25
2017-08-06T20:04:07.015Z,102065.80
2017-08-06T20:06:35.405Z,102071.02
2017-08-06T20:09:04.556Z,102072.86
2017-08-06T20:11:33.321Z,102068.77
2017-08-06T20:14:01.649Z,102062.84
2017-08-06T20:16:30.015Z,102067.39
2017-08-06T20:18:58.791Z,102067.17
2017-08-06T20:21:27.140Z,102072.48
2017-08-06T20:23:55.487Z,102067.34
2017-08-06T20:26:24.254Z,102067.90
2017-08-06T20:28:52.658Z,102073.77
2017-08-06T20:31:21.054Z,102068.43
2017-08-06T20:33:50.549Z,102066.81
2017-08-06T20:36:18.925Z,102070.25
2017-08-06T20:38:47.277Z,102075.13
2017-08-06T20:41:16.135Z,102080.34
2017-08-06T20:43:44.508Z,102073.63
2017-08-06T20:46:12.885Z,102075.77
2017-08-06T20:48:41.544Z,102079.00
2017-08-06T20:51:09.882Z,102082.09
2017-08-06T20:53:38.237Z,102083.14
2017-08-06T20:56:06.942Z,102083.63
2017-08-06T20:58:35.310Z,102088.88
2017-08-06T21:01:03.730Z,102086.71
2017-08-06T21:03:32.459Z,102090.74
2017-08-06T21:06:00.859Z,102085.00
2017-08-06T21:08:29.237Z,102082.62
2017-08-06T21:10:58.128Z,102081.08
2017-08-06T21:13:26.500Z,102090.88
2017-08-06T21:15:54.916Z,102091.09
2017-08-06T21:18:23.612Z,102095.59
2017-08-06T21:20:51.974Z,102095.30
2017-08-06T21:23:20.313Z,102099.20
2017-08-06T21:25:49.020Z,102102.37
2017-08-06T21:28:17.361Z,102099.91
2017-08-06T21:30:45.762Z,102101.80
2017-08-06T21:33:14.653Z,102101.13
2017-08-06T21:35:43.025Z,102099.28
2017-08-06T21:38:11.386Z,102099.72
2017-08-06T21:40:40.115Z,102094.35
2017-08-06T21:43:08.485Z,102097.14
2017-08-06T21:45:36.879Z,102104.91
2017-08-06T21:48:05.960Z,102104.67
2017-08-06T21:50:34.338Z,102113.70
2017-08-06T21:53:02.684Z,102103.88
2017-08-06T21:55:31.301Z,102101.72
2017-08-06T21:57:59.697Z,102109.64
2017-08-06T22:00:28.028Z,102109.05
2017-08-06T22:02:56.665Z,102107.50
2017-08-06T22:05:25.099Z,102109.64
2017-08-06T22:07:53.454Z,102108.13
2017-08-06T22:10:22.519Z,102105.83
2017-08-06T22:12:50.873Z,102110.90
2017-08-06T22:15:19.216Z,102097.36
2017-08-06T22:17:48.146Z,102094.67
2017-08-06T22:20:16.523Z,102099.77
2017-08-06T22:22:44.903Z,102103.98
2017-08-06T22:25:13.629Z,102097.15
2017-08-06T22:27:41.967Z,102101.53
2017-08-06T22:30:10.321Z,102102.84
2017-08-06T22:32:39.167Z,102109.01
2017-08-06T22:35:07.515Z,102106.05
2017-08-06T22:37:35.881Z,102105.14
2017-08-06T22:40:05.311Z,102110.11
2017-08-06T22:42:33.680Z,102108.03
2017-08-06T22:45:02.047Z,102109.83
2017-08-06T22:47:30.690Z,102111.98
2017-08-06T22:49:59.029Z,102116.35
2017-08-06T22:52:27.371Z,102113.59
2017-08-06T22:54:56.398Z,102114.61
2017-08-06T22:57:24.748Z,102108.70
2017-08-06T22:59:53.870Z,102111.16
2017-08-06T23:02:22.536Z,102111.20
2017-08-06T23:04:51.653Z,102110.87
2017-08-06T23:07:20.004Z,102107.02
2017-08-06T23:09:48.948Z,102107.00
2017-08-06T23:12:17.334Z,102106.03
2017-08-06T23:14:45.675Z,102105.38
2017-08-06T23:17:14.432Z,102102.87
2017-08-06T23:19:42.786Z,102109.13
2017-08-06T23:22:11.137Z,102113.96
2017-08-06T23:24:40.012Z,102109.84
2017-08-06T23:27:08.356Z,102105.80
2017-08-06T23:29:36.711Z,102097.63
2017-08-06T23:32:05.374Z,102107.20
2017-08-06T23:34:33.747Z,102103.55
2017-08-06T23:37:02.112Z,102096.09
2017-08-06T23:39:30.951Z,102098.11
2017-08-06T23:41:59.312Z,102095.97
2017-08-06T23:44:27.680Z,102087.09
2017-08-06T23:46:56.311Z,102086.17
2017-08-06T23:49:24.662Z,102089.25
2017-08-06T23:51:53.022Z,102084.91
2017-08-06T23:54:21.803Z,102084.56
2017-08-06T23:56:50.155Z,102081.98
2017-08-06T23:59:19.322Z,102085.93
